createdAt,value
2023-02-11T00:00:11.854Z,59.97
2023-02-11T00:02:39.343Z,60.09
2023-02-11T00:05:31.213Z,60.71
2023-02-11T00:07:59.594Z,62.12
2023-02-11T00:10:26.364Z,62.75
2023-02-11T00:12:53.319Z,63.00
2023-02-11T00:15:20.159Z,63.35
2023-02-11T00:17:48.904Z,64.17
2023-02-11T00:20:15.991Z,64.18
2023-02-11T00:22:43.823Z,63.96
2023-02-11T00:25:10.611Z,63.83
2023-02-11T00:27:39.358Z,64.39
2023-02-11T00:30:11.427Z,64.71
2023-02-11T00:32:38.387Z,65.14
2023-02-11T00:35:07.272Z,65.37
2023-02-11T00:37:35.795Z,65.96
2023-02-11T00:40:06.708Z,66.06
2023-02-11T00:42:35.805Z,66.18
2023-02-11T00:45:03.645Z,66.95
2023-02-11T00:47:31.270Z,67.13
2023-02-11T00:49:59.714Z,67.03
2023-02-11T00:55:19.270Z,67.15
2023-02-11T00:57:46.466Z,67.32
2023-02-11T01:00:17.429Z,67.39
2023-02-11T01:02:45.346Z,68.06
2023-02-11T01:05:12.169Z,67.24
2023-02-11T01:07:39.277Z,67.66
2023-02-11T01:10:06.333Z,67.69
2023-02-11T01:12:36.955Z,67.96
2023-02-11T01:15:05.413Z,68.41
2023-02-11T01:17:33.646Z,68.72
2023-02-11T01:20:06.284Z,69.19
2023-02-11T01:22:34.849Z,69.19
2023-02-11T01:25:03.398Z,70.16
2023-02-11T01:27:30.819Z,69.16
2023-02-11T01:29:57.768Z,69.59
2023-02-11T01:32:25.479Z,69.29
2023-02-11T01:34:55.002Z,69.46
2023-02-11T01:37:21.860Z,69.77
2023-02-11T01:39:49.312Z,69.91
2023-02-11T01:42:20.619Z,70.29
2023-02-11T01:44:52.302Z,70.34
2023-02-11T01:47:20.867Z,70.03
2023-02-11T01:49:58.307Z,70.08
2023-02-11T01:52:39.830Z,70.26
2023-02-11T01:55:13.898Z,70.27
2023-02-11T01:57:45.493Z,70.81
2023-02-11T02:00:22.294Z,70.60
2023-02-11T02:02:58.597Z,71.23
2023-02-11T02:05:47.431Z,71.77
2023-02-11T02:08:55.062Z,71.66
2023-02-11T02:11:26.387Z,71.71
2023-02-11T02:13:53.319Z,71.67
2023-02-11T02:16:31.478Z,72.62
2023-02-11T02:19:19.688Z,72.01
2023-02-11T02:25:33.250Z,72.76
2023-02-11T02:28:38.175Z,72.22
2023-02-11T02:31:12.515Z,72.68
2023-02-11T02:34:29.349Z,72.24
2023-02-11T02:37:05.331Z,73.08
2023-02-11T02:39:35.916Z,73.26
2023-02-11T02:42:06.348Z,72.91
2023-02-11T02:44:34.834Z,73.37
2023-02-11T02:47:04.431Z,73.56
2023-02-11T02:49:31.446Z,72.60
2023-02-11T02:52:28.450Z,73.62
2023-02-11T02:55:48.163Z,73.95
2023-02-11T02:58:50.373Z,73.51
2023-02-11T03:01:28.833Z,73.31
2023-02-11T03:04:12.764Z,73.59
2023-02-11T03:06:56.003Z,73.38
2023-02-11T03:09:32.715Z,73.08
2023-02-11T03:12:02.513Z,75.00
2023-02-11T03:14:32.284Z,74.19
2023-02-11T03:17:03.442Z,74.16
2023-02-11T03:19:42.360Z,75.31
2023-02-11T03:22:16.872Z,75.63
2023-02-11T03:24:45.081Z,75.75
2023-02-11T03:27:29.236Z,74.23
2023-02-11T03:30:12.464Z,74.99
2023-02-11T03:32:49.402Z,74.91
2023-02-11T03:35:41.487Z,74.85
2023-02-11T03:38:22.020Z,74.62
2023-02-11T03:40:53.556Z,76.49
2023-02-11T03:43:29.389Z,76.39
2023-02-11T03:45:59.401Z,75.17
2023-02-11T03:48:31.164Z,76.61
2023-02-11T03:51:03.371Z,74.25
2023-02-11T03:53:30.194Z,74.94
2023-02-11T03:56:00.437Z,73.63
2023-02-11T03:58:28.006Z,73.91
2023-02-11T04:00:55.392Z,73.82
2023-02-11T04:03:22.272Z,73.98
2023-02-11T04:05:51.363Z,73.63
2023-02-11T04:08:18.468Z,74.03
2023-02-11T04:10:45.227Z,74.33
2023-02-11T04:13:38.400Z,74.41
2023-02-11T04:16:05.998Z,74.06
2023-02-11T04:18:33.440Z,74.44
2023-02-11T04:21:00.286Z,74.31
2023-02-11T04:23:27.065Z,74.50
2023-02-11T04:25:53.867Z,73.58
2023-02-11T04:28:20.761Z,73.70
2023-02-11T04:30:50.602Z,73.46
2023-02-11T04:33:18.025Z,74.00
2023-02-11T04:35:45.349Z,73.66
2023-02-11T04:38:12.468Z,74.19
2023-02-11T04:40:39.685Z,74.01
2023-02-11T04:43:07.101Z,74.63
2023-02-11T04:48:27.397Z,73.83
2023-02-11T04:50:56.298Z,73.95
2023-02-11T04:53:24.737Z,74.31
2023-02-11T04:55:52.404Z,74.57
2023-02-11T04:58:20.044Z,74.04
2023-02-11T05:03:39.399Z,75.87
2023-02-11T05:06:07.406Z,74.89
2023-02-11T05:08:34.932Z,75.17
2023-02-11T05:11:02.140Z,74.23
2023-02-11T05:13:29.559Z,74.63
2023-02-11T05:15:56.735Z,73.76
2023-02-11T05:18:24.446Z,73.31
2023-02-11T05:20:53.327Z,72.49
2023-02-11T05:23:20.889Z,71.71
2023-02-11T05:25:47.994Z,69.64
2023-02-11T05:28:14.953Z,69.55
2023-02-11T05:30:42.705Z,70.07
2023-02-11T05:33:09.890Z,69.48
2023-02-11T05:35:37.990Z,70.23
2023-02-11T05:38:04.812Z,69.34
2023-02-11T05:40:31.841Z,69.38
2023-02-11T05:42:59.428Z,69.42
2023-02-11T05:45:26.208Z,69.21
2023-02-11T05:47:54.453Z,69.78
2023-02-11T05:50:21.300Z,70.24
2023-02-11T05:52:52.986Z,69.13
2023-02-11T05:55:20.896Z,68.67
2023-02-11T05:57:52.692Z,69.12
2023-02-11T06:00:44.472Z,68.83
2023-02-11T06:03:14.567Z,67.42
2023-02-11T06:05:43.620Z,66.47
2023-02-11T06:08:10.551Z,66.96
2023-02-11T06:10:39.454Z,66.85
2023-02-11T06:13:06.253Z,66.72
2023-02-11T06:15:33.950Z,66.87
2023-02-11T06:18:00.930Z,66.42
2023-02-11T06:20:27.684Z,65.83
2023-02-11T06:22:57.924Z,66.29
2023-02-11T06:25:24.703Z,64.43
2023-02-11T06:27:55.111Z,64.59
2023-02-11T06:30:48.661Z,65.24
2023-02-11T06:33:15.757Z,66.27
2023-02-11T06:35:42.562Z,66.47
2023-02-11T06:38:09.502Z,65.99
2023-02-11T06:41:01.580Z,65.85
2023-02-11T06:43:28.507Z,63.23
2023-02-11T06:46:20.234Z,64.07
2023-02-11T06:48:47.266Z,63.95
2023-02-11T06:51:17.492Z,63.76
2023-02-11T06:53:46.626Z,63.36
2023-02-11T06:56:16.644Z,62.90
2023-02-11T06:58:43.545Z,63.18
2023-02-11T07:01:14.568Z,63.51
2023-02-11T07:03:43.775Z,62.99
2023-02-11T07:06:14.774Z,62.38
2023-02-11T07:08:41.787Z,61.15
2023-02-11T07:11:17.746Z,59.96
2023-02-11T07:13:45.635Z,59.22
2023-02-11T07:16:15.209Z,58.28
2023-02-11T07:18:43.719Z,58.92
2023-02-11T07:21:13.240Z,56.51
2023-02-11T07:23:42.570Z,56.41
2023-02-11T07:26:12.569Z,56.56
2023-02-11T07:28:42.675Z,55.54
2023-02-11T07:31:13.097Z,55.79
2023-02-11T07:33:41.726Z,56.14
2023-02-11T07:39:02.097Z,56.86
2023-02-11T07:41:28.994Z,55.72
2023-02-11T07:43:56.093Z,55.10
2023-02-11T07:46:27.366Z,55.61
2023-02-11T07:48:54.974Z,55.07
2023-02-11T07:51:24.883Z,54.66
2023-02-11T07:53:52.225Z,54.51
2023-02-11T07:56:21.996Z,55.15
2023-02-11T07:58:52.445Z,54.84
2023-02-11T08:01:25.218Z,54.66
2023-02-11T08:03:58.491Z,54.32
2023-02-11T08:06:28.393Z,54.46
2023-02-11T08:08:55.677Z,55.49
2023-02-11T08:11:26.425Z,54.67
2023-02-11T08:13:55.292Z,54.43
2023-02-11T08:16:24.751Z,54.16
2023-02-11T08:18:53.482Z,53.30
2023-02-11T08:21:21.994Z,54.52
2023-02-11T08:23:49.244Z,53.49
2023-02-11T08:26:26.473Z,53.09
2023-02-11T08:28:55.246Z,52.01
2023-02-11T08:31:25.006Z,52.78
2023-02-11T08:33:53.519Z,52.33
2023-02-11T08:36:23.769Z,51.92
2023-02-11T08:38:51.168Z,52.30
2023-02-11T08:41:20.616Z,52.67
2023-02-11T08:43:48.994Z,53.48
2023-02-11T08:46:18.825Z,52.44
2023-02-11T08:49:10.628Z,51.76
2023-02-11T08:51:37.538Z,52.00
2023-02-11T08:54:04.712Z,51.81
2023-02-11T08:56:31.759Z,51.41
2023-02-11T08:59:23.459Z,51.81
2023-02-11T09:02:16.568Z,52.23
2023-02-11T09:04:44.008Z,51.98
2023-02-11T09:07:12.526Z,51.96
2023-02-11T09:09:39.874Z,52.10
2023-02-11T09:12:07.921Z,52.28
2023-02-11T09:14:37.537Z,52.22
2023-02-11T09:17:05.048Z,52.31
2023-02-11T09:19:32.496Z,52.61
2023-02-11T09:21:59.632Z,52.82
2023-02-11T09:24:27.599Z,52.38
2023-02-11T09:26:54.340Z,52.43
2023-02-11T09:29:22.494Z,52.91
2023-02-11T09:31:49.435Z,52.61
2023-02-11T09:34:48.671Z,52.81
2023-02-11T09:37:16.030Z,52.59
2023-02-11T09:39:42.730Z,51.92
2023-02-11T09:45:19.748Z,51.77
2023-02-11T09:48:06.458Z,52.15
2023-02-11T09:50:45.483Z,52.01
2023-02-11T09:53:22.554Z,53.06
2023-02-11T09:55:54.471Z,52.51
2023-02-11T09:58:34.604Z,52.24
2023-02-11T10:01:21.110Z,52.32
2023-02-11T10:04:01.194Z,51.77
2023-02-11T10:06:50.647Z,51.68
2023-02-11T10:10:01.033Z,51.56
2023-02-11T10:12:43.511Z,52.60
2023-02-11T10:15:34.518Z,52.51
2023-02-11T10:18:20.468Z,52.02
2023-02-11T10:21:09.096Z,51.90
2023-02-11T10:23:41.140Z,51.19
2023-02-11T10:26:18.054Z,49.97
2023-02-11T10:28:52.827Z,49.58
2023-02-11T10:31:28.010Z,49.46
2023-02-11T10:34:03.221Z,49.53
2023-02-11T10:36:37.057Z,49.25
2023-02-11T10:39:22.558Z,48.88
2023-02-11T10:42:07.308Z,48.58
2023-02-11T10:44:55.521Z,49.17
2023-02-11T10:47:47.392Z,48.73
2023-02-11T10:50:39.942Z,48.41
2023-02-11T10:53:18.153Z,49.22
2023-02-11T10:55:52.482Z,47.52
2023-02-11T10:58:29.150Z,47.63
2023-02-11T11:00:59.808Z,47.56
2023-02-11T11:03:39.783Z,47.18
2023-02-11T11:06:09.949Z,46.25
2023-02-11T11:08:44.394Z,46.15
2023-02-11T11:11:16.495Z,45.89
2023-02-11T11:13:52.283Z,45.94
2023-02-11T11:16:26.340Z,45.79
2023-02-11T11:19:14.965Z,45.54
2023-02-11T11:21:42.564Z,44.99
2023-02-11T11:24:22.084Z,45.35
2023-02-11T11:26:56.517Z,44.49
2023-02-11T11:29:31.064Z,45.30
2023-02-11T11:32:33.696Z,45.08
2023-02-11T11:35:04.823Z,45.14
2023-02-11T11:37:38.525Z,45.21
2023-02-11T11:40:35.445Z,45.26
2023-02-11T11:46:10.275Z,45.63
2023-02-11T11:48:37.007Z,45.40
2023-02-11T11:51:11.757Z,44.66
2023-02-11T11:53:44.314Z,44.21
2023-02-11T11:56:25.518Z,44.42
2023-02-11T11:58:52.670Z,44.68
2023-02-11T12:01:35.524Z,44.02
2023-02-11T12:04:24.596Z,44.21
2023-02-11T12:07:12.371Z,44.80
2023-02-11T12:10:06.104Z,44.66
2023-02-11T12:13:04.533Z,45.67
2023-02-11T12:15:53.744Z,45.91
2023-02-11T12:18:54.450Z,46.02
2023-02-11T12:21:49.347Z,46.89
2023-02-11T12:24:56.612Z,47.46
2023-02-11T12:27:38.838Z,47.87
2023-02-11T12:30:40.808Z,47.33
2023-02-11T12:33:36.260Z,46.89
2023-02-11T12:36:30.542Z,46.41
2023-02-11T12:39:30.142Z,46.38
2023-02-11T12:42:32.575Z,45.92
2023-02-11T12:45:11.798Z,45.89
2023-02-11T12:48:08.313Z,46.27
2023-02-11T12:50:54.537Z,44.78
2023-02-11T12:53:26.530Z,44.82
2023-02-11T12:56:16.043Z,43.40
2023-02-11T12:58:46.746Z,42.66
2023-02-11T13:01:23.810Z,42.05
2023-02-11T13:04:11.249Z,42.39
2023-02-11T13:07:16.437Z,41.60
2023-02-11T13:10:06.479Z,42.20
2023-02-11T13:12:37.447Z,42.08
2023-02-11T13:15:08.531Z,42.00
2023-02-11T13:17:52.978Z,41.84
2023-02-11T13:20:48.699Z,42.04
2023-02-11T13:23:53.001Z,42.15
2023-02-11T13:26:32.604Z,42.57
2023-02-11T13:29:27.405Z,43.22
2023-02-11T13:32:14.139Z,42.74
2023-02-11T13:35:31.523Z,43.18
2023-02-11T13:38:02.623Z,43.94
2023-02-11T13:40:37.071Z,44.04
2023-02-11T13:43:09.510Z,44.29
2023-02-11T13:45:45.987Z,44.12
2023-02-11T13:48:26.949Z,44.53
2023-02-11T13:50:57.851Z,44.52
2023-02-11T13:53:30.745Z,44.80
2023-02-11T13:56:12.759Z,44.91
2023-02-11T13:58:55.000Z,45.15
2023-02-11T14:01:47.419Z,45.29
2023-02-11T14:07:27.929Z,45.34
2023-02-11T14:09:56.048Z,45.20
2023-02-11T14:12:35.918Z,44.98
2023-02-11T14:15:07.866Z,45.65
2023-02-11T14:17:36.818Z,45.62
2023-02-11T14:20:27.055Z,45.33
2023-02-11T14:22:57.274Z,45.38
2023-02-11T14:25:26.149Z,45.86
2023-02-11T14:28:03.559Z,46.06
2023-02-11T14:30:55.888Z,46.19
2023-02-11T14:33:43.650Z,46.15
2023-02-11T14:36:39.511Z,46.63
2023-02-11T14:39:28.445Z,46.96
2023-02-11T14:41:56.992Z,47.21
2023-02-11T14:44:30.326Z,47.46
2023-02-11T14:47:00.924Z,47.68
2023-02-11T14:49:40.095Z,48.04
2023-02-11T14:55:29.199Z,49.11
2023-02-11T14:58:32.475Z,49.58
2023-02-11T15:01:10.734Z,49.76
2023-02-11T15:03:48.510Z,50.42
2023-02-11T15:06:25.502Z,50.26
2023-02-11T15:09:19.377Z,50.98
2023-02-11T15:11:49.783Z,51.21
2023-02-11T15:14:35.218Z,51.55
2023-02-11T15:17:06.802Z,51.79
2023-02-11T15:19:41.996Z,52.26
2023-02-11T15:22:23.275Z,52.56
2023-02-11T15:25:10.717Z,53.54
2023-02-11T15:27:43.897Z,54.14
2023-02-11T15:30:23.240Z,54.68
2023-02-11T15:32:53.604Z,54.88
2023-02-11T15:35:23.114Z,55.34
2023-02-11T15:37:56.694Z,56.04
2023-02-11T15:40:28.522Z,56.42
2023-02-11T15:43:01.063Z,56.84
2023-02-11T15:45:31.355Z,57.03
2023-02-11T15:48:15.897Z,57.83
2023-02-11T15:50:53.764Z,57.92
2023-02-11T15:53:38.001Z,58.10
2023-02-11T15:56:23.090Z,58.23
2023-02-11T15:58:54.489Z,58.91
2023-02-11T16:01:37.846Z,59.00
2023-02-11T16:04:06.560Z,59.05
2023-02-11T16:06:42.849Z,59.49
2023-02-11T16:09:12.106Z,59.95
2023-02-11T16:11:46.906Z,60.46
2023-02-11T16:14:30.875Z,60.59
2023-02-11T16:17:09.922Z,61.11
2023-02-11T16:20:02.139Z,61.30
2023-02-11T16:22:32.523Z,61.69
2023-02-11T16:25:02.261Z,61.49
2023-02-11T16:27:41.965Z,62.03
2023-02-11T16:30:36.186Z,61.89
2023-02-11T16:33:09.524Z,62.36
2023-02-11T16:35:37.242Z,62.09
2023-02-11T16:38:08.041Z,62.77
2023-02-11T16:40:35.792Z,62.69
2023-02-11T16:43:03.684Z,62.71
2023-02-11T16:45:37.356Z,63.21
2023-02-11T16:48:09.490Z,63.00
2023-02-11T16:51:02.208Z,63.34
2023-02-11T16:53:30.643Z,63.75
2023-02-11T16:56:02.984Z,63.34
2023-02-11T16:58:30.753Z,63.42
2023-02-11T17:01:04.829Z,63.12
2023-02-11T17:03:57.020Z,63.02
2023-02-11T17:06:24.985Z,62.85
2023-02-11T17:08:53.151Z,63.03
2023-02-11T17:11:26.029Z,63.02
2023-02-11T17:13:53.311Z,63.20
2023-02-11T17:16:24.576Z,62.79
2023-02-11T17:18:53.404Z,62.63
2023-02-11T17:21:22.090Z,62.59
2023-02-11T17:23:50.478Z,62.21
2023-02-11T17:26:17.758Z,62.50
2023-02-11T17:28:45.604Z,61.69
2023-02-11T17:31:13.147Z,61.91
2023-02-11T17:33:43.052Z,61.92
2023-02-11T17:36:11.102Z,61.36
2023-02-11T17:38:41.074Z,60.91
2023-02-11T17:41:08.816Z,61.23
2023-02-11T17:43:36.101Z,61.35
2023-02-11T17:49:00.573Z,60.51
2023-02-11T17:51:31.939Z,60.00
2023-02-11T17:54:04.187Z,59.63
2023-02-11T17:56:35.921Z,59.51
2023-02-11T17:59:08.516Z,59.61
2023-02-11T18:01:37.489Z,59.40
2023-02-11T18:04:06.942Z,59.36
2023-02-11T18:06:34.844Z,59.19
2023-02-11T18:09:02.964Z,59.15
2023-02-11T18:11:33.918Z,59.53
2023-02-11T18:14:07.941Z,59.19
2023-02-11T18:16:38.243Z,58.96
2023-02-11T18:19:07.997Z,59.26
2023-02-11T18:21:36.139Z,58.63
2023-02-11T18:24:07.006Z,58.79
2023-02-11T18:26:35.907Z,59.11
2023-02-11T18:29:04.788Z,59.16
2023-02-11T18:31:33.640Z,59.43
2023-02-11T18:34:03.609Z,59.92
2023-02-11T18:36:32.252Z,59.93
2023-02-11T18:39:00.702Z,60.17
2023-02-11T18:41:29.123Z,60.13
2023-02-11T18:43:58.983Z,60.44
2023-02-11T18:46:26.804Z,60.42
2023-02-11T18:48:56.094Z,59.80
2023-02-11T18:51:49.176Z,60.25
2023-02-11T18:54:17.697Z,60.77
2023-02-11T18:56:46.324Z,60.63
2023-02-11T18:59:13.919Z,60.49
2023-02-11T19:01:42.140Z,60.84
2023-02-11T19:04:10.675Z,60.35
2023-02-11T19:06:41.741Z,60.67
2023-02-11T19:09:18.813Z,60.55
2023-02-11T19:14:40.005Z,61.21
2023-02-11T19:17:09.681Z,61.07
2023-02-11T19:19:43.474Z,61.64
2023-02-11T19:22:11.796Z,61.76
2023-02-11T19:24:39.508Z,61.67
2023-02-11T19:27:33.047Z,62.08
2023-02-11T19:30:07.322Z,61.96
2023-02-11T19:32:39.911Z,62.29
2023-02-11T19:35:35.457Z,62.05
2023-02-11T19:38:07.052Z,62.27
2023-02-11T19:40:35.204Z,62.14
2023-02-11T19:43:06.079Z,62.63
2023-02-11T19:45:34.044Z,62.37
2023-02-11T19:48:01.803Z,62.49
2023-02-11T19:50:32.634Z,62.63
2023-02-11T19:53:00.273Z,62.73
2023-02-11T19:55:29.065Z,62.53
2023-02-11T19:57:57.563Z,62.25
2023-02-11T20:00:25.545Z,62.36
2023-02-11T20:02:53.376Z,62.88
2023-02-11T20:05:24.845Z,62.75
2023-02-11T20:07:54.994Z,63.12
2023-02-11T20:10:24.536Z,63.58
2023-02-11T20:12:54.177Z,63.72
2023-02-11T20:15:23.299Z,63.57
2023-02-11T20:17:54.782Z,63.87
2023-02-11T20:20:22.756Z,64.02
2023-02-11T20:22:52.987Z,63.99
2023-02-11T20:25:20.553Z,63.97
2023-02-11T20:27:47.981Z,63.51
2023-02-11T20:30:16.095Z,63.89
2023-02-11T20:32:43.974Z,64.42
2023-02-11T20:35:12.207Z,63.86
2023-02-11T20:37:43.793Z,64.37
2023-02-11T20:40:13.990Z,65.12
2023-02-11T20:42:45.012Z,65.01
2023-02-11T20:45:12.592Z,65.33
2023-02-11T20:47:43.202Z,65.11
2023-02-11T20:50:11.677Z,65.47
2023-02-11T20:52:39.646Z,65.56
2023-02-11T20:55:07.235Z,65.46
2023-02-11T20:57:37.083Z,65.72
2023-02-11T21:00:06.372Z,65.92
2023-02-11T21:02:36.542Z,66.86
2023-02-11T21:05:04.745Z,66.14
2023-02-11T21:07:34.038Z,66.47
2023-02-11T21:10:03.349Z,67.20
2023-02-11T21:12:31.015Z,66.53
2023-02-11T21:14:58.975Z,66.70
2023-02-11T21:17:31.733Z,66.66
2023-02-11T21:20:00.990Z,66.45
2023-02-11T21:22:30.290Z,67.13
2023-02-11T21:27:51.954Z,66.55
2023-02-11T21:30:19.841Z,66.56
2023-02-11T21:32:49.991Z,67.00
2023-02-11T21:35:17.984Z,67.22
2023-02-11T21:37:46.052Z,67.45
2023-02-11T21:40:23.130Z,68.17
2023-02-11T21:42:51.910Z,68.26
2023-02-11T21:45:19.543Z,68.23
2023-02-11T21:48:14.066Z,68.46
2023-02-11T21:50:47.036Z,68.41
2023-02-11T21:53:15.125Z,68.46
2023-02-11T21:55:42.664Z,68.54
2023-02-11T21:58:13.668Z,68.48
2023-02-11T22:00:41.403Z,68.39
2023-02-11T22:03:08.416Z,68.61
2023-02-11T22:05:42.273Z,68.74
2023-02-11T22:08:10.337Z,69.37
2023-02-11T22:10:37.597Z,69.35
2023-02-11T22:13:05.545Z,69.16
2023-02-11T22:15:32.903Z,69.47
2023-02-11T22:18:00.075Z,70.03
2023-02-11T22:20:29.075Z,69.82
2023-02-11T22:22:58.481Z,69.77
2023-02-11T22:25:25.430Z,70.05
2023-02-11T22:27:52.401Z,70.45
2023-02-11T22:30:19.275Z,69.93
2023-02-11T22:32:47.125Z,70.64
2023-02-11T22:35:14.099Z,70.64
2023-02-11T22:37:41.053Z,70.91
2023-02-11T22:40:08.603Z,70.61
2023-02-11T22:42:40.600Z,71.07
2023-02-11T22:45:07.861Z,71.13
2023-02-11T22:47:35.138Z,70.58
2023-02-11T22:50:02.026Z,70.77
2023-02-11T22:52:32.026Z,70.73
2023-02-11T22:55:00.275Z,70.94
2023-02-11T22:57:27.631Z,70.53
2023-02-11T22:59:55.338Z,70.51
2023-02-11T23:02:22.197Z,70.80
2023-02-11T23:07:42.047Z,70.59
2023-02-11T23:10:09.692Z,70.98
2023-02-11T23:12:38.098Z,70.76
2023-02-11T23:15:05.626Z,71.58
2023-02-11T23:17:33.078Z,71.69
2023-02-11T23:20:00.619Z,71.29
2023-02-11T23:22:28.091Z,71.13
2023-02-11T23:24:55.234Z,70.85
2023-02-11T23:27:22.111Z,71.09
2023-02-11T23:29:49.618Z,71.05
2023-02-11T23:32:16.537Z,70.86
2023-02-11T23:34:44.629Z,70.77
2023-02-11T23:37:11.440Z,70.67
2023-02-11T23:39:39.224Z,71.15
2023-02-11T23:42:06.606Z,71.58
2023-02-11T23:44:37.042Z,71.29
2023-02-11T23:47:04.584Z,71.35
2023-02-11T23:49:31.524Z,71.31
2023-02-11T23:51:58.462Z,71.58
2023-02-11T23:54:26.214Z,71.56
2023-02-11T23:56:54.115Z,71.76
2023-02-11T23:59:21.167Z,71.70
